sensor_id;sensor_type;location;lat;lon;timestamp;P1;durP1;ratioP1;P2;durP2;ratioP2
9304;SDS011;4690;52.422;13.486;2023-05-10T00:05:43;7.13;;;5.70;;
9304;SDS011;4690;52.422;13.486;2023-05-10T00:08:10;6.33;;;5.73;;
9304;SDS011;4690;52.422;13.486;2023-05-10T00:10:36;7.23;;;5.10;;
9304;SDS011;4690;52.422;13.486;2023-05-10T00:13:02;6.00;;;4.80;;
9304;SDS011;4690;52.422;13.486;2023-05-10T00:15:28;6.30;;;5.50;;
9304;SDS011;4690;52.422;13.486;2023-05-10T00:17:55;6.70;;;5.30;;
9304;SDS011;4690;52.422;13.486;2023-05-10T00:20:22;6.50;;;5.40;;
9304;SDS011;4690;52.422;13.486;2023-05-10T00:22:47;7.07;;;5.73;;
9304;SDS011;4690;52.422;13.486;2023-05-10T00:25:13;6.13;;;5.50;;
9304;SDS011;4690;52.422;13.486;2023-05-10T00:27:39;5.93;;;5.33;;
9304;SDS011;4690;52.422;13.486;2023-05-10T00:30:05;6.60;;;5.30;;
9304;SDS011;4690;52.422;13.486;2023-05-10T00:32:32;6.20;;;5.60;;
9304;SDS011;4690;52.422;13.486;2023-05-10T00:34:57;6.27;;;5.17;;
9304;SDS011;4690;52.422;13.486;2023-05-10T00:37:23;8.03;;;5.57;;
9304;SDS011;4690;52.422;13.486;2023-05-10T00:39:49;5.73;;;5.23;;
9304;SDS011;4690;52.422;13.486;2023-05-10T00:42:15;6.77;;;5.33;;
9304;SDS011;4690;52.422;13.486;2023-05-10T00:44:41;5.40;;;4.90;;
9304;SDS011;4690;52.422;13.486;2023-05-10T00:47:07;6.67;;;5.20;;
9304;SDS011;4690;52.422;13.486;2023-05-10T00:49:33;7.13;;;5.50;;
9304;SDS011;4690;52.422;13.486;2023-05-10T00:52:00;6.53;;;5.90;;
9304;SDS011;4690;52.422;13.486;2023-05-10T00:54:28;7.57;;;5.33;;
9304;SDS011;4690;52.422;13.486;2023-05-10T00:56:54;6.20;;;5.53;;
9304;SDS011;4690;52.422;13.486;2023-05-10T00:59:22;7.20;;;6.00;;
9304;SDS011;4690;52.422;13.486;2023-05-10T01:01:48;6.83;;;5.50;;
9304;SDS011;4690;52.422;13.486;2023-05-10T01:04:14;6.83;;;6.10;;
9304;SDS011;4690;52.422;13.486;2023-05-10T01:06:40;7.97;;;5.73;;
9304;SDS011;4690;52.422;13.486;2023-05-10T01:09:07;6.53;;;5.83;;
9304;SDS011;4690;52.422;13.486;2023-05-10T01:11:34;6.93;;;6.23;;
9304;SDS011;4690;52.422;13.486;2023-05-10T01:14:02;6.80;;;6.20;;
9304;SDS011;4690;52.422;13.486;2023-05-10T01:16:29;10.00;;;5.90;;
9304;SDS011;4690;52.422;13.486;2023-05-10T01:19:03;6.70;;;6.10;;
9304;SDS011;4690;52.422;13.486;2023-05-10T01:30:50;6.87;;;6.20;;
9304;SDS011;4690;52.422;13.486;2023-05-10T01:33:50;6.97;;;6.27;;
9304;SDS011;4690;52.422;13.486;2023-05-10T01:36:30;7.53;;;6.07;;
9304;SDS011;4690;52.422;13.486;2023-05-10T01:39:06;6.97;;;6.27;;
9304;SDS011;4690;52.422;13.486;2023-05-10T01:41:56;7.43;;;6.70;;
9304;SDS011;4690;52.422;13.486;2023-05-10T01:44:39;6.17;;;5.57;;
9304;SDS011;4690;52.422;13.486;2023-05-10T01:50:01;9.23;;;6.00;;
9304;SDS011;4690;52.422;13.486;2023-05-10T01:52:36;6.43;;;5.87;;
9304;SDS011;4690;52.422;13.486;2023-05-10T01:55:08;6.67;;;5.67;;
9304;SDS011;4690;52.422;13.486;2023-05-10T01:57:39;6.90;;;5.80;;
9304;SDS011;4690;52.422;13.486;2023-05-10T02:00:09;6.53;;;5.93;;
9304;SDS011;4690;52.422;13.486;2023-05-10T02:02:39;6.33;;;5.73;;
9304;SDS011;4690;52.422;13.486;2023-05-10T02:05:10;8.53;;;6.53;;
9304;SDS011;4690;52.422;13.486;2023-05-10T02:07:39;7.80;;;6.13;;
9304;SDS011;4690;52.422;13.486;2023-05-10T02:10:07;6.13;;;5.57;;
9304;SDS011;4690;52.422;13.486;2023-05-10T02:12:36;6.17;;;5.57;;
9304;SDS011;4690;52.422;13.486;2023-05-10T02:15:08;6.47;;;5.87;;
9304;SDS011;4690;52.422;13.486;2023-05-10T02:17:37;6.43;;;5.57;;
9304;SDS011;4690;52.422;13.486;2023-05-10T02:20:08;6.87;;;5.80;;
9304;SDS011;4690;52.422;13.486;2023-05-10T02:22:37;6.87;;;6.10;;
9304;SDS011;4690;52.422;13.486;2023-05-10T02:25:05;6.37;;;5.77;;
9304;SDS011;4690;52.422;13.486;2023-05-10T02:27:33;6.53;;;5.87;;
9304;SDS011;4690;52.422;13.486;2023-05-10T02:30:02;6.30;;;5.70;;
9304;SDS011;4690;52.422;13.486;2023-05-10T02:32:30;7.03;;;5.83;;
9304;SDS011;4690;52.422;13.486;2023-05-10T02:34:57;6.67;;;5.97;;
9304;SDS011;4690;52.422;13.486;2023-05-10T02:37:26;6.07;;;5.20;;
9304;SDS011;4690;52.422;13.486;2023-05-10T02:39:53;6.70;;;6.00;;
9304;SDS011;4690;52.422;13.486;2023-05-10T02:42:25;6.40;;;5.80;;
9304;SDS011;4690;52.422;13.486;2023-05-10T02:44:59;6.83;;;6.13;;
9304;SDS011;4690;52.422;13.486;2023-05-10T02:47:29;7.27;;;6.13;;
9304;SDS011;4690;52.422;13.486;2023-05-10T02:49:55;6.77;;;5.93;;
9304;SDS011;4690;52.422;13.486;2023-05-10T02:52:28;6.00;;;5.50;;
9304;SDS011;4690;52.422;13.486;2023-05-10T02:55:04;6.55;;;5.80;;
9304;SDS011;4690;52.422;13.486;2023-05-10T02:57:33;8.20;;;5.87;;
9304;SDS011;4690;52.422;13.486;2023-05-10T03:00:03;6.53;;;5.93;;
9304;SDS011;4690;52.422;13.486;2023-05-10T03:02:30;7.30;;;5.90;;
9304;SDS011;4690;52.422;13.486;2023-05-10T03:04:56;7.90;;;6.20;;
9304;SDS011;4690;52.422;13.486;2023-05-10T03:07:22;5.87;;;5.30;;
9304;SDS011;4690;52.422;13.486;2023-05-10T03:09:48;5.73;;;5.23;;
9304;SDS011;4690;52.422;13.486;2023-05-10T03:18:22;6.23;;;5.30;;
9304;SDS011;4690;52.422;13.486;2023-05-10T03:20:57;6.40;;;5.07;;
9304;SDS011;4690;52.422;13.486;2023-05-10T03:23:35;6.97;;;5.80;;
9304;SDS011;4690;52.422;13.486;2023-05-10T03:26:06;5.67;;;5.07;;
9304;SDS011;4690;52.422;13.486;2023-05-10T03:28:36;6.07;;;5.47;;
9304;SDS011;4690;52.422;13.486;2023-05-10T03:31:04;5.50;;;5.00;;
9304;SDS011;4690;52.422;13.486;2023-05-10T03:33:31;6.23;;;5.37;;
9304;SDS011;4690;52.422;13.486;2023-05-10T03:35:57;7.87;;;5.30;;
9304;SDS011;4690;52.422;13.486;2023-05-10T03:38:23;5.77;;;5.20;;
9304;SDS011;4690;52.422;13.486;2023-05-10T03:40:48;7.63;;;5.70;;
9304;SDS011;4690;52.422;13.486;2023-05-10T03:43:14;8.97;;;5.50;;
9304;SDS011;4690;52.422;13.486;2023-05-10T03:45:40;9.20;;;5.50;;
9304;SDS011;4690;52.422;13.486;2023-05-10T03:48:06;7.30;;;5.40;;
9304;SDS011;4690;52.422;13.486;2023-05-10T03:50:32;6.73;;;4.87;;
9304;SDS011;4690;52.422;13.486;2023-05-10T03:52:58;6.23;;;5.13;;
9304;SDS011;4690;52.422;13.486;2023-05-10T03:55:23;6.60;;;5.67;;
9304;SDS011;4690;52.422;13.486;2023-05-10T03:57:49;7.50;;;5.33;;
9304;SDS011;4690;52.422;13.486;2023-05-10T04:00:15;6.57;;;5.10;;
9304;SDS011;4690;52.422;13.486;2023-05-10T04:02:41;5.77;;;5.17;;
9304;SDS011;4690;52.422;13.486;2023-05-10T04:05:07;7.17;;;5.50;;
9304;SDS011;4690;52.422;13.486;2023-05-10T04:07:33;5.30;;;4.80;;
9304;SDS011;4690;52.422;13.486;2023-05-10T04:09:59;6.07;;;4.77;;
9304;SDS011;4690;52.422;13.486;2023-05-10T04:12:25;6.87;;;4.83;;
9304;SDS011;4690;52.422;13.486;2023-05-10T04:14:50;6.57;;;4.73;;
9304;SDS011;4690;52.422;13.486;2023-05-10T04:17:16;5.53;;;4.67;;
9304;SDS011;4690;52.422;13.486;2023-05-10T04:19:42;5.57;;;5.03;;
9304;SDS011;4690;52.422;13.486;2023-05-10T04:22:08;6.77;;;5.13;;
9304;SDS011;4690;52.422;13.486;2023-05-10T04:24:33;5.47;;;4.97;;
9304;SDS011;4690;52.422;13.486;2023-05-10T04:26:59;5.93;;;4.80;;
9304;SDS011;4690;52.422;13.486;2023-05-10T04:29:25;8.83;;;5.10;;
9304;SDS011;4690;52.422;13.486;2023-05-10T04:31:52;6.93;;;4.90;;
9304;SDS011;4690;52.422;13.486;2023-05-10T04:34:18;5.80;;;4.77;;
9304;SDS011;4690;52.422;13.486;2023-05-10T04:36:46;5.60;;;5.00;;
9304;SDS011;4690;52.422;13.486;2023-05-10T04:39:12;5.73;;;5.03;;
9304;SDS011;4690;52.422;13.486;2023-05-10T04:41:38;7.43;;;5.10;;
9304;SDS011;4690;52.422;13.486;2023-05-10T04:44:04;5.07;;;4.57;;
9304;SDS011;4690;52.422;13.486;2023-05-10T04:46:31;7.30;;;4.70;;
9304;SDS011;4690;52.422;13.486;2023-05-10T04:48:57;5.10;;;4.60;;
9304;SDS011;4690;52.422;13.486;2023-05-10T04:51:22;5.33;;;4.70;;
9304;SDS011;4690;52.422;13.486;2023-05-10T04:53:48;8.37;;;4.47;;
9304;SDS011;4690;52.422;13.486;2023-05-10T04:56:14;5.43;;;4.93;;
9304;SDS011;4690;52.422;13.486;2023-05-10T04:58:39;6.67;;;4.70;;
9304;SDS011;4690;52.422;13.486;2023-05-10T05:01:06;6.10;;;4.57;;
9304;SDS011;4690;52.422;13.486;2023-05-10T05:03:33;7.00;;;4.73;;
9304;SDS011;4690;52.422;13.486;2023-05-10T05:05:59;6.80;;;4.57;;
9304;SDS011;4690;52.422;13.486;2023-05-10T05:08:25;6.57;;;4.40;;
9304;SDS011;4690;52.422;13.486;2023-05-10T05:10:50;6.13;;;4.70;;
9304;SDS011;4690;52.422;13.486;2023-05-10T05:13:16;5.77;;;4.77;;
9304;SDS011;4690;52.422;13.486;2023-05-10T05:15:43;5.53;;;4.50;;
9304;SDS011;4690;52.422;13.486;2023-05-10T05:18:09;7.13;;;4.20;;
9304;SDS011;4690;52.422;13.486;2023-05-10T05:20:34;6.97;;;4.00;;
9304;SDS011;4690;52.422;13.486;2023-05-10T05:23:00;4.80;;;4.17;;
9304;SDS011;4690;52.422;13.486;2023-05-10T05:25:26;4.93;;;4.20;;
9304;SDS011;4690;52.422;13.486;2023-05-10T05:27:52;5.33;;;4.10;;
9304;SDS011;4690;52.422;13.486;2023-05-10T05:30:18;4.50;;;4.10;;
9304;SDS011;4690;52.422;13.486;2023-05-10T05:32:44;9.00;;;4.30;;
9304;SDS011;4690;52.422;13.486;2023-05-10T05:35:11;6.30;;;4.03;;
9304;SDS011;4690;52.422;13.486;2023-05-10T05:37:37;7.03;;;4.67;;
9304;SDS011;4690;52.422;13.486;2023-05-10T05:40:03;5.47;;;4.07;;
9304;SDS011;4690;52.422;13.486;2023-05-10T05:42:31;5.97;;;3.90;;
9304;SDS011;4690;52.422;13.486;2023-05-10T05:44:57;9.57;;;4.50;;
9304;SDS011;4690;52.422;13.486;2023-05-10T05:47:22;4.73;;;3.90;;
9304;SDS011;4690;52.422;13.486;2023-05-10T05:49:48;7.57;;;4.17;;
9304;SDS011;4690;52.422;13.486;2023-05-10T05:52:14;4.23;;;3.80;;
9304;SDS011;4690;52.422;13.486;2023-05-10T05:54:40;10.07;;;3.73;;
9304;SDS011;4690;52.422;13.486;2023-05-10T05:57:06;4.40;;;3.80;;
9304;SDS011;4690;52.422;13.486;2023-05-10T05:59:32;6.97;;;4.07;;
9304;SDS011;4690;52.422;13.486;2023-05-10T06:01:58;5.60;;;3.80;;
9304;SDS011;4690;52.422;13.486;2023-05-10T06:04:23;7.93;;;3.73;;
9304;SDS011;4690;52.422;13.486;2023-05-10T06:06:49;6.43;;;3.97;;
9304;SDS011;4690;52.422;13.486;2023-05-10T06:09:15;8.70;;;3.97;;
9304;SDS011;4690;52.422;13.486;2023-05-10T06:11:41;6.97;;;3.70;;
9304;SDS011;4690;52.422;13.486;2023-05-10T06:14:07;4.73;;;3.80;;
9304;SDS011;4690;52.422;13.486;2023-05-10T06:16:33;3.97;;;3.43;;
9304;SDS011;4690;52.422;13.486;2023-05-10T06:18:59;6.00;;;3.80;;
9304;SDS011;4690;52.422;13.486;2023-05-10T06:21:25;6.60;;;3.20;;
9304;SDS011;4690;52.422;13.486;2023-05-10T06:23:51;4.57;;;3.20;;
9304;SDS011;4690;52.422;13.486;2023-05-10T06:26:16;7.50;;;3.90;;
9304;SDS011;4690;52.422;13.486;2023-05-10T06:28:42;5.07;;;3.73;;
9304;SDS011;4690;52.422;13.486;2023-05-10T06:31:08;4.03;;;3.60;;
9304;SDS011;4690;52.422;13.486;2023-05-10T06:33:36;5.97;;;3.70;;
9304;SDS011;4690;52.422;13.486;2023-05-10T06:36:02;6.35;;;3.72;;
9304;SDS011;4690;52.422;13.486;2023-05-10T06:38:28;4.32;;;3.67;;
9304;SDS011;4690;52.422;13.486;2023-05-10T06:40:53;3.92;;;3.40;;
9304;SDS011;4690;52.422;13.486;2023-05-10T06:43:19;6.55;;;3.38;;
9304;SDS011;4690;52.422;13.486;2023-05-10T06:45:45;6.03;;;3.53;;
9304;SDS011;4690;52.422;13.486;2023-05-10T06:48:11;5.72;;;3.05;;
9304;SDS011;4690;52.422;13.486;2023-05-10T06:50:36;3.95;;;3.28;;
9304;SDS011;4690;52.422;13.486;2023-05-10T06:53:02;4.18;;;3.40;;
9304;SDS011;4690;52.422;13.486;2023-05-10T06:55:28;6.60;;;3.40;;
9304;SDS011;4690;52.422;13.486;2023-05-10T06:57:54;5.90;;;3.20;;
9304;SDS011;4690;52.422;13.486;2023-05-10T07:00:20;4.40;;;3.25;;
9304;SDS011;4690;52.422;13.486;2023-05-10T07:02:46;4.03;;;3.20;;
9304;SDS011;4690;52.422;13.486;2023-05-10T07:05:12;4.93;;;3.20;;
9304;SDS011;4690;52.422;13.486;2023-05-10T07:07:39;5.28;;;3.33;;
9304;SDS011;4690;52.422;13.486;2023-05-10T07:10:05;6.95;;;3.28;;
9304;SDS011;4690;52.422;13.486;2023-05-10T07:12:32;5.68;;;3.15;;
9304;SDS011;4690;52.422;13.486;2023-05-10T07:14:58;4.28;;;3.40;;
9304;SDS011;4690;52.422;13.486;2023-05-10T07:17:23;4.32;;;2.80;;
9304;SDS011;4690;52.422;13.486;2023-05-10T07:19:49;4.47;;;3.67;;
9304;SDS011;4690;52.422;13.486;2023-05-10T07:22:15;5.53;;;3.42;;
9304;SDS011;4690;52.422;13.486;2023-05-10T07:24:42;5.55;;;3.17;;
9304;SDS011;4690;52.422;13.486;2023-05-10T07:27:08;7.32;;;3.10;;
9304;SDS011;4690;52.422;13.486;2023-05-10T07:29:34;7.45;;;3.25;;
9304;SDS011;4690;52.422;13.486;2023-05-10T07:32:01;9.57;;;3.10;;
9304;SDS011;4690;52.422;13.486;2023-05-10T07:34:27;5.18;;;2.83;;
9304;SDS011;4690;52.422;13.486;2023-05-10T07:36:55;4.38;;;3.20;;
9304;SDS011;4690;52.422;13.486;2023-05-10T07:39:21;4.75;;;3.10;;
9304;SDS011;4690;52.422;13.486;2023-05-10T07:41:47;5.88;;;2.90;;
9304;SDS011;4690;52.422;13.486;2023-05-10T07:44:12;4.78;;;3.28;;
9304;SDS011;4690;52.422;13.486;2023-05-10T07:46:38;3.13;;;2.78;;
9304;SDS011;4690;52.422;13.486;2023-05-10T07:49:04;6.28;;;3.00;;
9304;SDS011;4690;52.422;13.486;2023-05-10T07:51:30;5.43;;;3.20;;
9304;SDS011;4690;52.422;13.486;2023-05-10T07:53:56;6.30;;;3.38;;
9304;SDS011;4690;52.422;13.486;2023-05-10T07:56:26;9.07;;;3.10;;
9304;SDS011;4690;52.422;13.486;2023-05-10T07:58:56;3.30;;;2.90;;
9304;SDS011;4690;52.422;13.486;2023-05-10T08:01:30;3.22;;;2.92;;
9304;SDS011;4690;52.422;13.486;2023-05-10T08:03:59;3.83;;;2.90;;
9304;SDS011;4690;52.422;13.486;2023-05-10T08:06:26;6.90;;;3.20;;
9304;SDS011;4690;52.422;13.486;2023-05-10T08:08:54;6.05;;;3.03;;
9304;SDS011;4690;52.422;13.486;2023-05-10T08:11:21;7.22;;;2.80;;
9304;SDS011;4690;52.422;13.486;2023-05-10T08:13:47;4.30;;;2.95;;
9304;SDS011;4690;52.422;13.486;2023-05-10T08:16:15;3.53;;;2.67;;
9304;SDS011;4690;52.422;13.486;2023-05-10T08:18:43;4.15;;;2.90;;
9304;SDS011;4690;52.422;13.486;2023-05-10T08:21:11;3.42;;;3.10;;
9304;SDS011;4690;52.422;13.486;2023-05-10T08:23:38;4.72;;;3.20;;
9304;SDS011;4690;52.422;13.486;2023-05-10T08:26:05;4.13;;;2.92;;
9304;SDS011;4690;52.422;13.486;2023-05-10T08:28:31;4.15;;;3.10;;
9304;SDS011;4690;52.422;13.486;2023-05-10T08:30:56;4.50;;;3.15;;
9304;SDS011;4690;52.422;13.486;2023-05-10T08:33:22;7.25;;;3.40;;
9304;SDS011;4690;52.422;13.486;2023-05-10T08:35:48;6.30;;;3.00;;
9304;SDS011;4690;52.422;13.486;2023-05-10T08:38:14;4.13;;;3.03;;
9304;SDS011;4690;52.422;13.486;2023-05-10T08:40:43;3.22;;;2.90;;
9304;SDS011;4690;52.422;13.486;2023-05-10T08:43:10;6.05;;;3.17;;
9304;SDS011;4690;52.422;13.486;2023-05-10T08:45:41;3.72;;;3.38;;
9304;SDS011;4690;52.422;13.486;2023-05-10T08:48:12;7.03;;;3.20;;
9304;SDS011;4690;52.422;13.486;2023-05-10T08:50:40;3.63;;;3.20;;
9304;SDS011;4690;52.422;13.486;2023-05-10T08:53:11;3.70;;;3.00;;
9304;SDS011;4690;52.422;13.486;2023-05-10T08:55:40;7.30;;;3.30;;
9304;SDS011;4690;52.422;13.486;2023-05-10T08:58:07;2.83;;;2.63;;
9304;SDS011;4690;52.422;13.486;2023-05-10T09:00:34;3.50;;;3.20;;
9304;SDS011;4690;52.422;13.486;2023-05-10T09:03:03;5.38;;;3.05;;
9304;SDS011;4690;52.422;13.486;2023-05-10T09:05:30;3.40;;;3.10;;
9304;SDS011;4690;52.422;13.486;2023-05-10T09:07:56;4.93;;;3.20;;
9304;SDS011;4690;52.422;13.486;2023-05-10T09:10:21;4.68;;;3.00;;
9304;SDS011;4690;52.422;13.486;2023-05-10T09:12:51;5.40;;;3.05;;
9304;SDS011;4690;52.422;13.486;2023-05-10T09:15:18;6.75;;;3.00;;
9304;SDS011;4690;52.422;13.486;2023-05-10T09:17:45;4.35;;;3.40;;
9304;SDS011;4690;52.422;13.486;2023-05-10T09:20:12;3.35;;;3.05;;
9304;SDS011;4690;52.422;13.486;2023-05-10T09:22:38;4.40;;;3.28;;
9304;SDS011;4690;52.422;13.486;2023-05-10T09:25:12;5.90;;;3.15;;
9304;SDS011;4690;52.422;13.486;2023-05-10T09:27:44;3.88;;;3.08;;
9304;SDS011;4690;52.422;13.486;2023-05-10T09:30:16;4.00;;;3.13;;
9304;SDS011;4690;52.422;13.486;2023-05-10T09:32:49;4.30;;;2.92;;
9304;SDS011;4690;52.422;13.486;2023-05-10T09:35:16;3.45;;;3.15;;
9304;SDS011;4690;52.422;13.486;2023-05-10T09:37:46;5.05;;;3.00;;
9304;SDS011;4690;52.422;13.486;2023-05-10T09:40:15;4.78;;;3.08;;
9304;SDS011;4690;52.422;13.486;2023-05-10T09:45:25;6.40;;;3.25;;
9304;SDS011;4690;52.422;13.486;2023-05-10T09:47:57;3.92;;;3.28;;
9304;SDS011;4690;52.422;13.486;2023-05-10T09:50:24;5.78;;;2.90;;
9304;SDS011;4690;52.422;13.486;2023-05-10T09:53:01;3.58;;;2.60;;
9304;SDS011;4690;52.422;13.486;2023-05-10T09:58:11;4.68;;;2.80;;
9304;SDS011;4690;52.422;13.486;2023-05-10T10:00:39;4.72;;;2.90;;
9304;SDS011;4690;52.422;13.486;2023-05-10T10:03:13;4.70;;;2.40;;
9304;SDS011;4690;52.422;13.486;2023-05-10T10:05:44;6.78;;;3.10;;
9304;SDS011;4690;52.422;13.486;2023-05-10T10:08:12;3.38;;;2.65;;
9304;SDS011;4690;52.422;13.486;2023-05-10T10:10:39;4.32;;;2.90;;
9304;SDS011;4690;52.422;13.486;2023-05-10T10:13:06;5.05;;;3.05;;
9304;SDS011;4690;52.422;13.486;2023-05-10T10:15:33;4.00;;;2.95;;
9304;SDS011;4690;52.422;13.486;2023-05-10T10:18:00;5.38;;;3.05;;
9304;SDS011;4690;52.422;13.486;2023-05-10T10:20:26;4.05;;;2.83;;
9304;SDS011;4690;52.422;13.486;2023-05-10T10:22:53;6.90;;;3.05;;
9304;SDS011;4690;52.422;13.486;2023-05-10T10:25:19;7.78;;;3.10;;
9304;SDS011;4690;52.422;13.486;2023-05-10T10:35:44;3.83;;;2.60;;
9304;SDS011;4690;52.422;13.486;2023-05-10T10:38:12;7.15;;;2.63;;
9304;SDS011;4690;52.422;13.486;2023-05-10T10:40:38;3.83;;;2.90;;
9304;SDS011;4690;52.422;13.486;2023-05-10T10:43:21;2.90;;;2.70;;
9304;SDS011;4690;52.422;13.486;2023-05-10T10:46:11;9.93;;;3.03;;
9304;SDS011;4690;52.422;13.486;2023-05-10T10:48:49;3.95;;;2.90;;
9304;SDS011;4690;52.422;13.486;2023-05-10T10:51:37;4.60;;;2.85;;
9304;SDS011;4690;52.422;13.486;2023-05-10T10:54:10;5.00;;;2.95;;
9304;SDS011;4690;52.422;13.486;2023-05-10T10:56:36;3.50;;;3.03;;
9304;SDS011;4690;52.422;13.486;2023-05-10T10:59:02;3.25;;;2.70;;
9304;SDS011;4690;52.422;13.486;2023-05-10T11:01:32;4.07;;;3.22;;
9304;SDS011;4690;52.422;13.486;2023-05-10T11:06:29;5.55;;;3.20;;
9304;SDS011;4690;52.422;13.486;2023-05-10T11:08:59;3.17;;;2.85;;
9304;SDS011;4690;52.422;13.486;2023-05-10T11:11:32;5.30;;;3.08;;
9304;SDS011;4690;52.422;13.486;2023-05-10T11:14:04;8.90;;;3.20;;
9304;SDS011;4690;52.422;13.486;2023-05-10T11:16:41;4.80;;;2.70;;
9304;SDS011;4690;52.422;13.486;2023-05-10T11:19:09;2.90;;;2.60;;
9304;SDS011;4690;52.422;13.486;2023-05-10T11:21:47;6.30;;;2.83;;
9304;SDS011;4690;52.422;13.486;2023-05-10T11:24:38;3.28;;;2.92;;
9304;SDS011;4690;52.422;13.486;2023-05-10T11:27:05;4.57;;;3.05;;
9304;SDS011;4690;52.422;13.486;2023-05-10T11:29:31;3.88;;;2.78;;
9304;SDS011;4690;52.422;13.486;2023-05-10T11:31:58;3.10;;;2.80;;
9304;SDS011;4690;52.422;13.486;2023-05-10T11:34:25;6.22;;;3.00;;
9304;SDS011;4690;52.422;13.486;2023-05-10T11:36:58;4.07;;;2.75;;
9304;SDS011;4690;52.422;13.486;2023-05-10T11:39:29;6.80;;;2.67;;
9304;SDS011;4690;52.422;13.486;2023-05-10T11:41:56;3.10;;;2.75;;
9304;SDS011;4690;52.422;13.486;2023-05-10T11:44:23;5.47;;;2.95;;
9304;SDS011;4690;52.422;13.486;2023-05-10T11:47:00;3.80;;;2.90;;
9304;SDS011;4690;52.422;13.486;2023-05-10T11:49:26;4.90;;;2.90;;
9304;SDS011;4690;52.422;13.486;2023-05-10T11:51:52;10.45;;;3.00;;
9304;SDS011;4690;52.422;13.486;2023-05-10T11:54:18;5.32;;;3.17;;
9304;SDS011;4690;52.422;13.486;2023-05-10T11:56:44;3.90;;;2.85;;
9304;SDS011;4690;52.422;13.486;2023-05-10T11:59:10;5.82;;;2.80;;
9304;SDS011;4690;52.422;13.486;2023-05-10T12:01:39;4.80;;;3.22;;
9304;SDS011;4690;52.422;13.486;2023-05-10T12:04:06;3.05;;;2.75;;
9304;SDS011;4690;52.422;13.486;2023-05-10T12:06:32;6.72;;;3.05;;
9304;SDS011;4690;52.422;13.486;2023-05-10T12:09:05;3.45;;;3.15;;
9304;SDS011;4690;52.422;13.486;2023-05-10T12:11:35;4.55;;;3.08;;
9304;SDS011;4690;52.422;13.486;2023-05-10T12:14:05;7.72;;;2.78;;
9304;SDS011;4690;52.422;13.486;2023-05-10T12:16:31;4.70;;;2.75;;
9304;SDS011;4690;52.422;13.486;2023-05-10T12:18:59;4.15;;;2.78;;
9304;SDS011;4690;52.422;13.486;2023-05-10T12:21:26;5.95;;;3.35;;
9304;SDS011;4690;52.422;13.486;2023-05-10T12:23:58;5.93;;;3.38;;
9304;SDS011;4690;52.422;13.486;2023-05-10T12:26:28;4.63;;;3.10;;
9304;SDS011;4690;52.422;13.486;2023-05-10T12:28:54;12.88;;;3.22;;
9304;SDS011;4690;52.422;13.486;2023-05-10T12:31:53;6.15;;;3.05;;
9304;SDS011;4690;52.422;13.486;2023-05-10T12:37:01;4.03;;;2.75;;
9304;SDS011;4690;52.422;13.486;2023-05-10T12:39:40;4.10;;;2.88;;
9304;SDS011;4690;52.422;13.486;2023-05-10T12:42:11;3.80;;;3.00;;
9304;SDS011;4690;52.422;13.486;2023-05-10T12:44:36;3.30;;;2.80;;
9304;SDS011;4690;52.422;13.486;2023-05-10T12:47:02;5.75;;;2.88;;
9304;SDS011;4690;52.422;13.486;2023-05-10T12:49:28;5.20;;;3.03;;
9304;SDS011;4690;52.422;13.486;2023-05-10T12:51:54;3.55;;;3.08;;
9304;SDS011;4690;52.422;13.486;2023-05-10T12:54:19;4.05;;;2.90;;
9304;SDS011;4690;52.422;13.486;2023-05-10T12:56:45;4.05;;;2.65;;
9304;SDS011;4690;52.422;13.486;2023-05-10T12:59:11;3.60;;;3.20;;
9304;SDS011;4690;52.422;13.486;2023-05-10T13:01:37;3.38;;;3.13;;
9304;SDS011;4690;52.422;13.486;2023-05-10T13:04:02;5.45;;;2.90;;
9304;SDS011;4690;52.422;13.486;2023-05-10T13:06:28;3.58;;;2.97;;
9304;SDS011;4690;52.422;13.486;2023-05-10T13:08:54;3.50;;;2.72;;
9304;SDS011;4690;52.422;13.486;2023-05-10T13:11:20;4.88;;;3.00;;
9304;SDS011;4690;52.422;13.486;2023-05-10T13:13:46;3.15;;;2.55;;
9304;SDS011;4690;52.422;13.486;2023-05-10T13:16:12;5.00;;;3.00;;
9304;SDS011;4690;52.422;13.486;2023-05-10T13:18:37;3.20;;;3.00;;
9304;SDS011;4690;52.422;13.486;2023-05-10T13:21:03;3.00;;;2.70;;
9304;SDS011;4690;52.422;13.486;2023-05-10T13:23:30;8.50;;;3.10;;
9304;SDS011;4690;52.422;13.486;2023-05-10T13:25:56;3.33;;;2.97;;
9304;SDS011;4690;52.422;13.486;2023-05-10T13:28:21;3.65;;;3.00;;
9304;SDS011;4690;52.422;13.486;2023-05-10T13:30:47;4.32;;;2.67;;
9304;SDS011;4690;52.422;13.486;2023-05-10T13:33:13;4.00;;;2.83;;
9304;SDS011;4690;52.422;13.486;2023-05-10T13:35:39;5.53;;;2.90;;
9304;SDS011;4690;52.422;13.486;2023-05-10T13:38:05;4.18;;;2.65;;
9304;SDS011;4690;52.422;13.486;2023-05-10T13:40:32;4.43;;;2.80;;
9304;SDS011;4690;52.422;13.486;2023-05-10T13:42:59;4.57;;;2.58;;
9304;SDS011;4690;52.422;13.486;2023-05-10T13:45:25;7.97;;;2.88;;
9304;SDS011;4690;52.422;13.486;2023-05-10T13:47:50;6.60;;;2.97;;
9304;SDS011;4690;52.422;13.486;2023-05-10T13:50:17;4.32;;;3.00;;
9304;SDS011;4690;52.422;13.486;2023-05-10T13:52:43;7.65;;;3.10;;
9304;SDS011;4690;52.422;13.486;2023-05-10T13:55:09;5.72;;;2.70;;
9304;SDS011;4690;52.422;13.486;2023-05-10T13:57:37;3.40;;;2.78;;
9304;SDS011;4690;52.422;13.486;2023-05-10T14:00:03;3.63;;;2.60;;
9304;SDS011;4690;52.422;13.486;2023-05-10T14:02:29;4.35;;;2.72;;
9304;SDS011;4690;52.422;13.486;2023-05-10T14:04:55;4.30;;;2.53;;
9304;SDS011;4690;52.422;13.486;2023-05-10T14:07:21;5.10;;;2.97;;
9304;SDS011;4690;52.422;13.486;2023-05-10T14:09:47;3.20;;;2.83;;
9304;SDS011;4690;52.422;13.486;2023-05-10T14:12:13;4.70;;;2.67;;
9304;SDS011;4690;52.422;13.486;2023-05-10T14:14:39;2.70;;;2.50;;
9304;SDS011;4690;52.422;13.486;2023-05-10T14:17:05;4.93;;;2.70;;
9304;SDS011;4690;52.422;13.486;2023-05-10T14:19:31;3.38;;;2.60;;
9304;SDS011;4690;52.422;13.486;2023-05-10T14:21:58;3.30;;;2.75;;
9304;SDS011;4690;52.422;13.486;2023-05-10T14:24:24;3.53;;;2.70;;
9304;SDS011;4690;52.422;13.486;2023-05-10T14:26:50;3.92;;;2.92;;
9304;SDS011;4690;52.422;13.486;2023-05-10T14:29:18;3.95;;;2.60;;
9304;SDS011;4690;52.422;13.486;2023-05-10T14:31:45;4.80;;;2.80;;
9304;SDS011;4690;52.422;13.486;2023-05-10T14:34:11;3.20;;;2.70;;
9304;SDS011;4690;52.422;13.486;2023-05-10T14:36:37;3.13;;;2.78;;
9304;SDS011;4690;52.422;13.486;2023-05-10T14:39:02;3.65;;;2.80;;
9304;SDS011;4690;52.422;13.486;2023-05-10T14:41:28;3.35;;;2.97;;
9304;SDS011;4690;52.422;13.486;2023-05-10T14:43:55;4.15;;;2.70;;
9304;SDS011;4690;52.422;13.486;2023-05-10T14:46:20;2.97;;;2.70;;
9304;SDS011;4690;52.422;13.486;2023-05-10T14:48:46;2.95;;;2.75;;
9304;SDS011;4690;52.422;13.486;2023-05-10T14:51:12;6.65;;;2.67;;
9304;SDS011;4690;52.422;13.486;2023-05-10T14:53:38;3.72;;;2.80;;
9304;SDS011;4690;52.422;13.486;2023-05-10T14:56:04;4.30;;;2.78;;
9304;SDS011;4690;52.422;13.486;2023-05-10T14:58:30;3.13;;;2.53;;
9304;SDS011;4690;52.422;13.486;2023-05-10T15:00:56;4.45;;;2.70;;
9304;SDS011;4690;52.422;13.486;2023-05-10T15:03:22;5.50;;;3.20;;
9304;SDS011;4690;52.422;13.486;2023-05-10T15:05:47;7.97;;;2.88;;
9304;SDS011;4690;52.422;13.486;2023-05-10T15:08:13;4.25;;;2.80;;
9304;SDS011;4690;52.422;13.486;2023-05-10T15:10:39;3.83;;;2.80;;
9304;SDS011;4690;52.422;13.486;2023-05-10T15:13:05;3.00;;;2.70;;
9304;SDS011;4690;52.422;13.486;2023-05-10T15:15:31;6.30;;;3.10;;
9304;SDS011;4690;52.422;13.486;2023-05-10T15:17:57;6.35;;;2.97;;
9304;SDS011;4690;52.422;13.486;2023-05-10T15:20:22;3.78;;;2.92;;
9304;SDS011;4690;52.422;13.486;2023-05-10T15:22:48;4.85;;;2.90;;
9304;SDS011;4690;52.422;13.486;2023-05-10T15:25:14;3.03;;;2.80;;
9304;SDS011;4690;52.422;13.486;2023-05-10T15:27:40;5.63;;;2.63;;
9304;SDS011;4690;52.422;13.486;2023-05-10T15:30:08;3.13;;;2.65;;
9304;SDS011;4690;52.422;13.486;2023-05-10T15:32:35;3.45;;;2.63;;
9304;SDS011;4690;52.422;13.486;2023-05-10T15:35:02;5.88;;;2.95;;
9304;SDS011;4690;52.422;13.486;2023-05-10T15:37:28;8.45;;;3.00;;
9304;SDS011;4690;52.422;13.486;2023-05-10T15:39:54;3.85;;;2.75;;
9304;SDS011;4690;52.422;13.486;2023-05-10T15:42:27;4.38;;;3.00;;
9304;SDS011;4690;52.422;13.486;2023-05-10T15:44:52;3.58;;;2.75;;